Aérodrome :
LOGIN :

S'inscrire | Disclaimer

   EN    FR    IT 

 










Légende :    VFR   VFR Marginal   IFR   IFR Intensif   IFR Très Intensif
Visi : 
Plafond : 
>= 8 km
>= 3000ft
5 à 8 km
1000 à 3000 ft
1500m à 5 km
500 à 1000 ft
800 à 1500m
200 à 500 ft
< 800m
< 200 ft
Symboles :   Orages  Brouillard  Fortes neiges  Fortes précipitations  Vent > 20 kt
SIGMETs :   Divers  Orages  Givrage  Turbulence  Onde Orograph.  Cendres Volcan.






- Altitude de l'aérodrome : 423 ft
- Code IATA : PIS


LFBI - Poitiers

DERNIER METAR :
  • 110530Z AUTO 19011KT 7000 RA OVC006/// ///TCU 06/06 Q1013 TEMPO 3000 RA OVC005

METARs EXPIRÉS :
  • 110500Z AUTO 19012KT 7000 -RA BKN007/// BKN011/// BKN040/// ///TCU 06/06 Q1013 TEMPO 3000 RA BKN005
  • 110430Z AUTO 19014KT 6000 -RA SCT012 BKN018 BKN032 06/06 Q1013 TEMPO 3000 RA BKN005
  • 110400Z AUTO 19013KT 9999 BKN014 BKN019 OVC035 06/05 Q1014 TEMPO 3000 RA BKN005
  • 110330Z AUTO 19014KT 9999 OVC018 06/05 Q1014 TEMPO 3000 RA BKN005
  • 110300Z AUTO 19015KT 9999 BKN013 OVC018 06/05 Q1015 TEMPO 3000 RA BKN005

TAF AMD TAF LFBI
Valide du 11 à 06h jusqu'au 12 à 06h UTC


110523Z 1106/1206 20010KT 9999 OVC020
PROB40 1106/1109 3000 RA OVC005
BECMG 1109/1111 26010KT
TEMPO 1111/1114 -SHRA BKN014
TEMPO 1114/1120 27015G25KT 3000 SHRA SCT015CB BKN020TCU
PROB30
TEMPO 1114/1118 TSRA
TEMPO 1200/1206 -RA



MET'MAP, la Météo Aéronautique d'un coup d'oeil ! - Copyright ORBIFLY Décembre 2007 - Disclaimer

ORBIFLY MET'MAP TEAM :

Programmation & Développement : Alexandra Zaïnal
Sur une idée originale de : Baudouin d'Aumeries
Assistance à la programmation : Marc-Olivier Méhu
Soutien technique & logistique : Manuel Goepfert

Contact : metmap@orbifly.com




SOURCES & CREDITS :

   NOAA